createdAt,value
2019-03-09T00:02:00.529Z,5.50
2019-03-09T00:04:46.177Z,4.50
2019-03-09T00:07:22.168Z,5.20
2019-03-09T00:09:56.929Z,5.20
2019-03-09T00:12:31.910Z,4.43
2019-03-09T00:15:07.319Z,3.23
2019-03-09T00:17:42.252Z,3.87
2019-03-09T00:20:19.157Z,4.07
2019-03-09T00:23:02.998Z,4.00
2019-03-09T00:25:40.411Z,3.10
2019-03-09T00:28:23.963Z,2.63
2019-03-09T00:31:03.679Z,3.30
2019-03-09T00:33:38.846Z,2.70
2019-03-09T00:36:13.785Z,2.90
2019-03-09T00:38:48.626Z,2.80
2019-03-09T00:41:23.467Z,3.40
2019-03-09T00:43:58.290Z,2.63
2019-03-09T00:46:33.226Z,3.17
2019-03-09T00:49:08.140Z,3.00
2019-03-09T00:51:42.988Z,3.47
2019-03-09T00:54:17.793Z,3.57
2019-03-09T00:56:52.935Z,3.77
2019-03-09T00:59:28.107Z,4.00
2019-03-09T01:02:03.005Z,3.43
2019-03-09T01:04:37.908Z,3.70
2019-03-09T01:07:12.764Z,4.50
2019-03-09T01:09:47.657Z,4.20
2019-03-09T01:12:22.595Z,4.57
2019-03-09T01:14:58.375Z,5.40
2019-03-09T01:17:33.401Z,6.00
2019-03-09T01:20:11.509Z,6.43
2019-03-09T01:22:47.471Z,5.63
2019-03-09T01:25:22.772Z,4.90
2019-03-09T01:27:58.571Z,5.47
2019-03-09T01:30:33.668Z,5.90
2019-03-09T01:33:08.561Z,6.60
2019-03-09T01:35:43.425Z,6.13
2019-03-09T01:38:18.296Z,6.03
2019-03-09T01:40:54.032Z,5.23
2019-03-09T01:43:29.009Z,7.13
2019-03-09T01:46:04.003Z,5.33
2019-03-09T01:48:38.788Z,7.67
2019-03-09T01:51:13.771Z,6.33
2019-03-09T01:53:48.693Z,7.10
2019-03-09T01:56:23.445Z,5.13
2019-03-09T01:59:01.425Z,6.07
2019-03-09T02:01:36.295Z,6.17
2019-03-09T02:04:11.901Z,7.10
2019-03-09T02:06:46.949Z,6.40
2019-03-09T02:09:22.021Z,7.03
2019-03-09T02:11:59.526Z,8.30
2019-03-09T02:14:35.412Z,7.40
2019-03-09T02:17:25.254Z,7.40
2019-03-09T02:20:03.871Z,8.13
2019-03-09T02:22:39.899Z,7.37
2019-03-09T02:25:14.866Z,5.80
2019-03-09T02:27:50.535Z,6.90
2019-03-09T02:30:26.714Z,6.70
2019-03-09T02:33:01.591Z,6.90
2019-03-09T02:35:36.487Z,6.77
2019-03-09T02:38:19.507Z,7.27
2019-03-09T02:40:54.825Z,7.03
2019-03-09T02:43:30.089Z,7.10
2019-03-09T02:46:04.948Z,5.33
2019-03-09T02:48:39.806Z,6.60
2019-03-09T02:51:14.651Z,6.77
2019-03-09T02:53:49.510Z,7.37
2019-03-09T02:56:24.362Z,7.77
2019-03-09T02:58:59.276Z,7.00
2019-03-09T03:02:10.936Z,8.10
2019-03-09T03:04:45.799Z,7.37
2019-03-09T03:07:20.656Z,6.87
2019-03-09T03:09:55.484Z,9.27
2019-03-09T03:12:30.443Z,6.37
2019-03-09T03:15:06.719Z,7.53
2019-03-09T03:17:41.564Z,7.57
2019-03-09T03:20:19.180Z,6.73
2019-03-09T03:22:54.106Z,6.70
2019-03-09T03:25:28.901Z,7.27
2019-03-09T03:28:05.233Z,5.63
2019-03-09T03:30:40.177Z,7.10
2019-03-09T03:33:14.926Z,6.37
2019-03-09T03:35:49.786Z,6.70
2019-03-09T03:38:24.572Z,6.53
2019-03-09T03:40:59.534Z,6.13
2019-03-09T03:43:34.656Z,5.93
2019-03-09T03:46:09.423Z,7.43
2019-03-09T03:48:45.298Z,5.80
2019-03-09T03:51:20.198Z,7.00
2019-03-09T03:53:55.009Z,5.67
2019-03-09T03:56:29.920Z,6.00
2019-03-09T03:59:04.972Z,5.23
2019-03-09T04:01:39.776Z,6.40
2019-03-09T04:04:14.535Z,6.20
2019-03-09T04:06:49.522Z,6.13
2019-03-09T04:09:24.889Z,6.00
2019-03-09T04:11:59.777Z,5.43
2019-03-09T04:14:37.083Z,6.37
2019-03-09T04:17:16.439Z,4.30
2019-03-09T04:19:52.195Z,5.37
2019-03-09T04:22:28.666Z,4.80
2019-03-09T04:25:04.938Z,4.20
2019-03-09T04:27:39.804Z,4.63
2019-03-09T04:30:15.211Z,5.67
2019-03-09T04:32:50.087Z,4.30
2019-03-09T04:35:24.941Z,5.60
2019-03-09T04:37:59.832Z,6.33
2019-03-09T04:40:34.785Z,6.60
2019-03-09T04:43:09.554Z,6.40
2019-03-09T04:45:44.500Z,6.10
2019-03-09T04:48:20.319Z,5.20
2019-03-09T04:50:55.103Z,5.13
2019-03-09T04:53:30.036Z,5.73
2019-03-09T04:56:04.849Z,4.90
2019-03-09T04:58:39.603Z,4.20
2019-03-09T05:01:18.678Z,3.60
2019-03-09T05:04:45.699Z,4.77
2019-03-09T05:07:53.104Z,3.60
2019-03-09T05:10:42.866Z,4.20
2019-03-09T05:13:49.032Z,3.63
2019-03-09T05:16:23.904Z,3.77
2019-03-09T05:18:58.652Z,3.30
2019-03-09T05:21:33.520Z,3.10
2019-03-09T05:24:08.448Z,3.93
2019-03-09T05:26:45.092Z,3.43
2019-03-09T05:29:20.770Z,3.30
2019-03-09T05:31:55.726Z,2.00
2019-03-09T05:34:30.604Z,2.67
2019-03-09T05:37:08.812Z,2.17
2019-03-09T05:39:44.560Z,2.80
2019-03-09T05:42:19.424Z,2.73
2019-03-09T05:44:54.359Z,2.30
2019-03-09T05:47:29.187Z,2.50
2019-03-09T05:50:04.839Z,2.60
2019-03-09T05:52:40.146Z,2.20
2019-03-09T05:55:20.615Z,2.57
2019-03-09T05:57:55.478Z,3.20
2019-03-09T06:00:30.266Z,2.97
2019-03-09T06:03:05.268Z,1.90
2019-03-09T06:06:03.162Z,3.27
2019-03-09T06:08:38.415Z,3.00
2019-03-09T06:11:13.783Z,2.70
2019-03-09T06:13:50.492Z,3.07
2019-03-09T06:16:25.421Z,2.43
2019-03-09T06:19:01.340Z,3.00
2019-03-09T06:22:37.032Z,3.20
2019-03-09T06:25:11.997Z,3.43
2019-03-09T06:27:46.905Z,3.63
2019-03-09T06:30:23.481Z,3.00
2019-03-09T06:33:39.067Z,3.80
2019-03-09T06:36:53.788Z,2.70
2019-03-09T06:41:14.954Z,3.40
2019-03-09T06:43:52.487Z,3.00
2019-03-09T06:46:29.748Z,2.70
2019-03-09T06:49:04.820Z,2.80
2019-03-09T06:51:39.682Z,2.77
2019-03-09T06:54:14.506Z,2.53
2019-03-09T06:56:51.098Z,3.10
2019-03-09T06:59:26.107Z,1.90
2019-03-09T07:02:02.034Z,2.87
2019-03-09T07:04:36.926Z,3.00
2019-03-09T07:07:11.923Z,2.47
2019-03-09T07:09:46.662Z,2.43
2019-03-09T07:12:21.803Z,4.27
2019-03-09T07:15:24.651Z,3.07
2019-03-09T07:18:31.371Z,2.10
2019-03-09T07:21:06.482Z,2.73
2019-03-09T07:23:41.768Z,2.23
2019-03-09T07:26:17.556Z,1.87
2019-03-09T07:28:52.488Z,2.53
2019-03-09T07:31:29.830Z,2.13
2019-03-09T07:34:24.692Z,2.90
2019-03-09T07:37:01.374Z,2.17
2019-03-09T07:39:36.550Z,2.50
2019-03-09T07:42:11.454Z,2.23
2019-03-09T07:44:46.386Z,2.43
2019-03-09T07:47:21.245Z,2.50
2019-03-09T07:49:56.110Z,2.37
2019-03-09T07:52:36.503Z,3.40
2019-03-09T07:55:21.440Z,2.60
2019-03-09T07:58:03.673Z,3.87
2019-03-09T08:00:41.051Z,2.47
2019-03-09T08:03:15.886Z,2.60
2019-03-09T08:05:50.690Z,2.70
2019-03-09T08:08:25.633Z,1.90
2019-03-09T08:11:16.754Z,1.87
2019-03-09T08:13:45.146Z,3.13
2019-03-09T08:16:20.042Z,2.40
2019-03-09T08:18:57.463Z,2.30
2019-03-09T08:21:32.483Z,3.43
2019-03-09T08:24:07.315Z,2.37
2019-03-09T08:26:42.312Z,2.23
2019-03-09T08:29:17.200Z,2.43
2019-03-09T08:31:52.785Z,2.50
2019-03-09T08:34:27.660Z,2.67
2019-03-09T08:37:02.563Z,2.30
2019-03-09T08:39:37.387Z,2.10
2019-03-09T08:42:15.233Z,4.03
2019-03-09T08:44:50.028Z,3.10
2019-03-09T08:47:26.546Z,2.30
2019-03-09T08:50:19.984Z,2.50
2019-03-09T08:52:54.891Z,2.17
2019-03-09T08:55:29.967Z,2.93
2019-03-09T08:58:04.860Z,2.30
2019-03-09T09:00:40.672Z,2.40
2019-03-09T09:03:15.703Z,2.37
2019-03-09T09:05:50.684Z,2.67
2019-03-09T09:08:25.646Z,3.00
2019-03-09T09:11:00.631Z,3.50
2019-03-09T09:13:40.703Z,2.67
2019-03-09T09:16:16.500Z,2.57
2019-03-09T09:18:52.203Z,3.30
2019-03-09T09:21:27.145Z,3.57
2019-03-09T09:24:02.882Z,2.73
2019-03-09T09:26:37.926Z,3.00
2019-03-09T09:29:14.447Z,2.60
2019-03-09T09:31:50.175Z,3.10
2019-03-09T09:34:25.152Z,2.57
2019-03-09T09:37:00.076Z,2.40
2019-03-09T09:39:37.479Z,3.17
2019-03-09T09:42:13.825Z,3.20
2019-03-09T09:44:48.732Z,2.53
2019-03-09T09:47:23.729Z,3.20
2019-03-09T09:49:58.637Z,2.70
2019-03-09T09:52:33.660Z,2.00
2019-03-09T09:55:11.410Z,2.77
2019-03-09T09:57:46.399Z,1.60
2019-03-09T10:00:26.093Z,3.10
2019-03-09T10:03:01.133Z,3.20
2019-03-09T10:05:37.471Z,2.50
2019-03-09T10:08:12.437Z,3.07
2019-03-09T10:10:47.252Z,2.40
2019-03-09T10:13:22.307Z,2.40
2019-03-09T10:15:57.678Z,2.50
2019-03-09T10:18:32.795Z,2.60
2019-03-09T10:21:07.675Z,2.30
2019-03-09T10:23:53.356Z,2.10
2019-03-09T10:26:28.699Z,2.60
2019-03-09T10:29:04.470Z,2.00
2019-03-09T10:31:39.528Z,2.70
2019-03-09T10:34:14.479Z,2.23
2019-03-09T10:36:50.617Z,2.63
2019-03-09T10:39:25.933Z,3.33
2019-03-09T10:42:00.841Z,2.63
2019-03-09T10:44:38.335Z,2.83
2019-03-09T10:47:15.915Z,2.40
2019-03-09T10:54:13.361Z,1.93
2019-03-09T10:56:49.127Z,2.10
2019-03-09T10:59:24.184Z,1.73
2019-03-09T11:01:59.133Z,2.90
2019-03-09T11:04:34.367Z,2.50
2019-03-09T11:07:09.259Z,2.07
2019-03-09T11:09:44.413Z,2.33
2019-03-09T11:12:19.343Z,1.90
2019-03-09T11:14:54.257Z,2.27
2019-03-09T11:17:31.944Z,3.03
2019-03-09T11:20:10.697Z,2.20
2019-03-09T11:22:47.475Z,1.90
2019-03-09T11:25:25.876Z,2.57
2019-03-09T11:28:10.116Z,2.60
2019-03-09T11:30:45.019Z,2.67
2019-03-09T11:33:20.521Z,2.00
2019-03-09T11:35:56.889Z,2.83
2019-03-09T11:38:32.589Z,2.73
2019-03-09T11:41:07.616Z,2.50
2019-03-09T11:43:43.779Z,2.67
2019-03-09T11:46:18.639Z,1.73
2019-03-09T11:48:53.560Z,2.67
2019-03-09T11:51:28.372Z,3.60
2019-03-09T11:54:04.397Z,2.67
2019-03-09T11:56:41.727Z,2.57
2019-03-09T11:59:18.198Z,3.47
2019-03-09T12:01:55.675Z,2.27
2019-03-09T12:04:31.255Z,2.57
2019-03-09T12:07:08.627Z,2.57
2019-03-09T12:09:46.046Z,2.50
2019-03-09T12:12:21.084Z,3.30
2019-03-09T12:14:56.266Z,2.37
2019-03-09T12:17:31.493Z,2.60
2019-03-09T12:20:07.380Z,2.97
2019-03-09T12:22:42.490Z,2.90
2019-03-09T12:25:17.439Z,2.47
2019-03-09T12:27:56.032Z,2.30
2019-03-09T12:30:30.935Z,2.47
2019-03-09T12:33:05.946Z,2.40
2019-03-09T12:35:40.893Z,2.17
2019-03-09T12:38:16.000Z,2.40
2019-03-09T12:40:52.081Z,2.53
2019-03-09T12:43:28.183Z,3.07
2019-03-09T12:46:04.739Z,2.30
2019-03-09T12:48:39.753Z,2.23
2019-03-09T12:51:17.399Z,2.43
2019-03-09T12:53:54.623Z,1.97
2019-03-09T12:56:30.331Z,2.07
2019-03-09T12:59:06.111Z,2.50
2019-03-09T13:01:41.986Z,2.10
2019-03-09T13:04:16.947Z,2.83
2019-03-09T13:06:51.822Z,2.10
2019-03-09T13:09:27.685Z,2.63
2019-03-09T13:12:02.629Z,2.30
2019-03-09T13:14:38.039Z,1.83
2019-03-09T13:17:13.154Z,2.30
2019-03-09T13:19:47.970Z,2.20
2019-03-09T13:22:22.868Z,2.07
2019-03-09T13:24:57.778Z,2.50
2019-03-09T13:27:32.703Z,2.07
2019-03-09T13:30:09.313Z,1.80
2019-03-09T13:32:44.350Z,2.00
2019-03-09T13:35:19.161Z,1.87
2019-03-09T13:37:54.343Z,2.10
2019-03-09T13:40:29.253Z,2.63
2019-03-09T13:43:04.178Z,1.73
2019-03-09T13:45:39.111Z,1.60
2019-03-09T13:48:14.029Z,2.20
2019-03-09T13:50:48.931Z,2.17
2019-03-09T13:53:23.910Z,2.77
2019-03-09T13:55:59.002Z,2.00
2019-03-09T13:58:33.951Z,1.33
2019-03-09T14:01:08.748Z,2.77
2019-03-09T14:03:44.561Z,2.00
2019-03-09T14:06:19.481Z,2.60
2019-03-09T14:08:54.430Z,2.37
2019-03-09T14:11:31.965Z,2.60
2019-03-09T14:14:06.747Z,3.23
2019-03-09T14:16:41.633Z,2.50
2019-03-09T14:19:16.532Z,2.70
2019-03-09T14:21:51.456Z,4.17
2019-03-09T14:24:26.406Z,2.77
2019-03-09T14:27:03.514Z,2.90
2019-03-09T14:29:38.304Z,2.90
2019-03-09T14:33:39.363Z,4.00
2019-03-09T14:36:18.524Z,3.20
2019-03-09T14:38:54.335Z,4.03
2019-03-09T14:41:29.447Z,6.03
2019-03-09T14:44:04.465Z,4.90
2019-03-09T14:46:39.374Z,4.50
2019-03-09T14:49:14.328Z,5.77
2019-03-09T14:51:50.299Z,5.83
2019-03-09T14:54:26.266Z,5.80
2019-03-09T14:57:03.035Z,5.70
2019-03-09T14:59:37.920Z,6.40
2019-03-09T15:02:12.811Z,4.27
2019-03-09T15:04:47.749Z,4.53
2019-03-09T15:07:22.783Z,4.40
2019-03-09T15:10:00.321Z,4.40
2019-03-09T15:12:37.390Z,3.47
2019-03-09T15:15:13.376Z,2.73
2019-03-09T15:17:48.481Z,4.80
2019-03-09T15:20:23.360Z,4.10
2019-03-09T15:22:58.274Z,2.40
2019-03-09T15:25:33.272Z,2.23
2019-03-09T15:28:08.199Z,2.77
2019-03-09T15:30:43.103Z,2.20
2019-03-09T15:33:17.960Z,2.10
2019-03-09T15:35:52.933Z,1.27
2019-03-09T15:38:27.819Z,1.53
2019-03-09T15:41:03.613Z,1.77
2019-03-09T15:43:38.483Z,1.80
2019-03-09T15:46:13.508Z,1.37
2019-03-09T15:48:48.372Z,1.43
2019-03-09T15:51:23.347Z,1.37
2019-03-09T15:53:58.120Z,2.40
2019-03-09T15:56:32.999Z,2.27
2019-03-09T15:59:07.872Z,2.47
2019-03-09T16:01:43.041Z,2.63
2019-03-09T16:04:18.007Z,3.37
2019-03-09T16:06:53.059Z,2.80
2019-03-09T16:09:27.955Z,4.23
2019-03-09T16:12:02.846Z,2.00
2019-03-09T16:14:38.215Z,1.90
2019-03-09T16:17:15.989Z,2.67
2019-03-09T16:19:50.876Z,1.00
2019-03-09T16:22:25.764Z,1.50
2019-03-09T16:25:00.635Z,1.40
2019-03-09T16:27:35.619Z,1.43
2019-03-09T16:30:14.096Z,1.20
2019-03-09T16:32:53.564Z,2.07
2019-03-09T16:35:34.521Z,1.87
2019-03-09T16:38:09.415Z,1.30
2019-03-09T16:40:44.306Z,2.30
2019-03-09T16:43:19.174Z,2.00
2019-03-09T16:45:54.300Z,2.10
2019-03-09T16:48:29.142Z,1.93
2019-03-09T16:51:04.079Z,2.03
2019-03-09T16:53:39.027Z,1.50
2019-03-09T16:56:14.767Z,1.47
2019-03-09T16:58:49.705Z,1.63
2019-03-09T17:01:24.506Z,1.60
2019-03-09T17:03:59.377Z,2.00
2019-03-09T17:06:34.286Z,1.20
2019-03-09T17:09:09.406Z,1.40
2019-03-09T17:11:46.242Z,1.60
2019-03-09T17:14:21.188Z,1.73
2019-03-09T17:16:56.148Z,2.57
2019-03-09T17:19:31.047Z,1.73
2019-03-09T17:22:09.649Z,1.00
2019-03-09T17:24:44.456Z,1.40
2019-03-09T17:27:19.292Z,0.70
2019-03-09T17:29:54.203Z,0.90
2019-03-09T17:32:29.148Z,0.80
2019-03-09T17:35:04.066Z,0.90
2019-03-09T17:37:42.713Z,0.60
2019-03-09T17:40:18.077Z,0.93
2019-03-09T17:42:53.085Z,1.20
2019-03-09T17:45:28.398Z,0.90
2019-03-09T17:48:03.460Z,1.37
2019-03-09T17:50:39.197Z,2.20
2019-03-09T17:53:14.213Z,1.27
2019-03-09T17:55:51.390Z,1.00
2019-03-09T17:58:26.630Z,1.43
2019-03-09T18:01:02.621Z,1.73
2019-03-09T18:03:37.657Z,1.23
2019-03-09T18:06:12.575Z,1.50
2019-03-09T18:08:47.482Z,1.70
2019-03-09T18:11:22.338Z,1.67
2019-03-09T18:14:07.021Z,1.23
2019-03-09T18:16:39.968Z,1.80
2019-03-09T18:19:17.795Z,1.70
2019-03-09T18:21:52.784Z,1.60
2019-03-09T18:24:34.213Z,1.47
2019-03-09T18:27:09.058Z,1.93
2019-03-09T18:29:43.967Z,1.70
2019-03-09T18:32:22.006Z,1.03
2019-03-09T18:34:56.888Z,1.70
2019-03-09T18:37:34.625Z,1.37
2019-03-09T18:40:25.151Z,1.70
2019-03-09T18:43:10.816Z,1.23
2019-03-09T18:48:35.983Z,1.30
2019-03-09T18:51:10.997Z,1.77
2019-03-09T18:53:45.856Z,1.40
2019-03-09T18:56:20.819Z,1.33
2019-03-09T18:58:56.296Z,1.40
2019-03-09T19:01:31.272Z,1.67
2019-03-09T19:04:06.141Z,1.30
2019-03-09T19:06:41.041Z,1.97
2019-03-09T19:09:15.918Z,1.60
2019-03-09T19:11:50.808Z,1.77
2019-03-09T19:14:25.780Z,0.87
2019-03-09T19:17:00.732Z,2.40
2019-03-09T19:19:38.070Z,1.33
2019-03-09T19:22:12.957Z,1.90
2019-03-09T19:24:47.853Z,1.30
2019-03-09T19:27:22.703Z,1.57
2019-03-09T19:29:57.512Z,2.30
2019-03-09T19:32:32.443Z,1.40
2019-03-09T19:35:16.864Z,1.57
2019-03-09T19:37:51.754Z,1.90
2019-03-09T19:40:26.629Z,1.80
2019-03-09T19:43:01.528Z,2.10
2019-03-09T19:45:36.336Z,2.40
2019-03-09T19:48:12.908Z,1.50
2019-03-09T19:50:47.814Z,1.13
2019-03-09T19:53:22.737Z,2.00
2019-03-09T19:55:57.653Z,1.40
2019-03-09T19:58:32.717Z,2.03
2019-03-09T20:01:07.603Z,1.30
2019-03-09T20:03:42.783Z,2.40
2019-03-09T20:06:18.068Z,1.10
2019-03-09T20:11:51.344Z,2.40
2019-03-09T20:22:11.457Z,1.70
2019-03-09T20:24:46.345Z,2.00
2019-03-09T20:27:23.428Z,1.77
2019-03-09T20:29:58.327Z,1.63
2019-03-09T20:32:33.354Z,1.27
2019-03-09T20:35:08.484Z,1.57
2019-03-09T20:37:43.463Z,2.40
2019-03-09T20:40:18.336Z,1.67
2019-03-09T20:42:53.395Z,1.60
2019-03-09T20:45:30.643Z,1.63
2019-03-09T20:48:05.497Z,1.10
2019-03-09T20:50:40.447Z,1.50
2019-03-09T20:53:15.378Z,1.43
2019-03-09T20:55:50.248Z,1.90
2019-03-09T20:58:26.016Z,1.30
2019-03-09T21:01:00.902Z,1.80
2019-03-09T21:03:36.499Z,1.20
2019-03-09T21:06:11.445Z,2.37
2019-03-09T21:08:46.378Z,1.90
2019-03-09T21:11:21.232Z,1.60
2019-03-09T21:13:56.329Z,2.53
2019-03-09T21:16:31.569Z,1.80
2019-03-09T21:19:07.107Z,1.83
2019-03-09T21:21:42.898Z,2.60
2019-03-09T21:24:19.053Z,1.63
2019-03-09T21:26:54.012Z,2.00
2019-03-09T21:29:30.478Z,2.27
2019-03-09T21:32:05.669Z,2.33
2019-03-09T21:34:40.571Z,2.07
2019-03-09T21:37:15.348Z,2.40
2019-03-09T21:39:50.254Z,2.00
2019-03-09T21:42:25.152Z,1.20
2019-03-09T21:45:00.082Z,1.60
2019-03-09T21:47:35.028Z,1.90
2019-03-09T21:50:11.801Z,1.57
2019-03-09T21:52:46.767Z,1.73
2019-03-09T21:55:21.695Z,1.73
2019-03-09T21:57:56.573Z,1.73
2019-03-09T22:00:31.455Z,2.70
2019-03-09T22:03:06.244Z,2.23
2019-03-09T22:05:42.215Z,1.63
2019-03-09T22:08:17.072Z,2.00
2019-03-09T22:10:52.546Z,1.70
2019-03-09T22:13:33.423Z,1.83
2019-03-09T22:16:16.096Z,2.23
2019-03-09T22:18:50.970Z,2.10
2019-03-09T22:21:25.871Z,2.47
2019-03-09T22:24:00.762Z,2.77
2019-03-09T22:26:35.719Z,2.53
2019-03-09T22:29:10.597Z,2.63
2019-03-09T22:31:45.527Z,2.27
2019-03-09T22:34:26.058Z,2.23
2019-03-09T22:37:01.102Z,2.33
2019-03-09T22:39:35.922Z,2.70
2019-03-09T22:42:10.804Z,3.10
2019-03-09T22:44:45.685Z,2.30
2019-03-09T22:47:20.591Z,2.87
2019-03-09T22:49:55.432Z,2.90
2019-03-09T22:52:30.227Z,2.10
2019-03-09T22:55:06.096Z,3.37
2019-03-09T22:57:41.033Z,2.87
2019-03-09T23:00:19.647Z,2.70
2019-03-09T23:02:56.051Z,2.67
2019-03-09T23:05:30.923Z,3.67
2019-03-09T23:08:05.942Z,3.00
2019-03-09T23:10:40.851Z,2.90
2019-03-09T23:13:15.811Z,2.60
2019-03-09T23:15:50.603Z,2.63
2019-03-09T23:18:25.549Z,2.30
2019-03-09T23:21:00.361Z,2.97
2019-03-09T23:23:35.313Z,2.07
2019-03-09T23:26:10.290Z,2.13
2019-03-09T23:28:50.441Z,2.20
2019-03-09T23:31:25.277Z,2.20
2019-03-09T23:34:00.077Z,1.70
2019-03-09T23:36:34.933Z,2.30
2019-03-09T23:39:11.753Z,2.10
2019-03-09T23:41:46.701Z,1.80
2019-03-09T23:44:21.569Z,3.23
2019-03-09T23:46:56.323Z,2.10
2019-03-09T23:49:32.696Z,1.87
2019-03-09T23:52:07.860Z,2.27
2019-03-09T23:54:42.755Z,2.33
2019-03-09T23:57:17.920Z,2.73
2019-03-09T23:59:52.863Z,2.20
